createdAt,value
2022-08-12T00:00:08.483Z,2.33
2022-08-12T00:02:54.637Z,2.10
2022-08-12T00:06:04.499Z,2.30
2022-08-12T00:08:47.884Z,2.30
2022-08-12T00:11:33.821Z,2.40
2022-08-12T00:14:19.250Z,2.60
2022-08-12T00:17:05.719Z,2.37
2022-08-12T00:19:50.729Z,1.83
2022-08-12T00:22:38.823Z,2.63
2022-08-12T00:25:50.834Z,2.27
2022-08-12T00:28:31.855Z,2.30
2022-08-12T00:31:17.387Z,2.20
2022-08-12T00:34:02.295Z,2.17
2022-08-12T00:36:50.202Z,2.57
2022-08-12T00:39:37.089Z,2.60
2022-08-12T00:42:10.765Z,2.57
2022-08-12T00:44:39.695Z,2.40
2022-08-12T00:47:07.495Z,2.30
2022-08-12T00:49:52.140Z,2.60
2022-08-12T00:52:21.077Z,2.30
2022-08-12T00:54:52.218Z,2.60
2022-08-12T00:57:21.729Z,2.57
2022-08-12T00:59:52.690Z,2.50
2022-08-12T01:02:25.477Z,2.40
2022-08-12T01:05:12.158Z,2.20
2022-08-12T01:08:00.186Z,2.37
2022-08-12T01:10:49.183Z,2.30
2022-08-12T01:13:19.852Z,2.90
2022-08-12T01:15:50.305Z,2.57
2022-08-12T01:18:18.862Z,2.33
2022-08-12T01:20:50.657Z,2.50
2022-08-12T01:23:36.185Z,2.53
2022-08-12T01:26:07.274Z,2.40
2022-08-12T01:28:37.091Z,2.27
2022-08-12T01:31:07.776Z,2.30
2022-08-12T01:33:41.256Z,2.30
2022-08-12T01:36:12.028Z,2.63
2022-08-12T01:38:41.413Z,2.50
2022-08-12T01:41:16.507Z,2.23
2022-08-12T01:43:45.393Z,2.30
2022-08-12T01:46:22.579Z,2.60
2022-08-12T01:49:03.091Z,2.30
2022-08-12T01:52:21.382Z,2.07
2022-08-12T01:54:30.093Z,2.77
2022-08-12T01:57:07.553Z,2.50
2022-08-12T01:59:50.100Z,2.63
2022-08-12T02:02:23.165Z,2.30
2022-08-12T02:05:21.936Z,2.90
2022-08-12T02:08:19.071Z,2.80
2022-08-12T02:11:14.252Z,3.00
2022-08-12T02:14:00.020Z,2.33
2022-08-12T02:16:40.584Z,2.60
2022-08-12T02:19:23.486Z,2.77
2022-08-12T02:21:59.996Z,3.00
2022-08-12T02:24:31.201Z,2.43
2022-08-12T02:26:59.297Z,2.53
2022-08-12T02:29:28.915Z,2.53
2022-08-12T02:31:59.176Z,2.83
2022-08-12T02:34:26.922Z,3.07
2022-08-12T02:36:55.872Z,2.40
2022-08-12T02:39:27.146Z,2.80
2022-08-12T02:41:58.589Z,2.47
2022-08-12T02:44:31.176Z,2.70
2022-08-12T02:47:04.077Z,3.00
2022-08-12T02:49:35.549Z,2.47
2022-08-12T02:52:04.054Z,2.80
2022-08-12T02:54:31.599Z,2.90
2022-08-12T02:56:59.136Z,2.83
2022-08-12T02:59:30.182Z,3.27
2022-08-12T03:02:03.168Z,2.60
2022-08-12T03:04:40.091Z,2.60
2022-08-12T03:07:12.772Z,2.93
2022-08-12T03:10:03.586Z,2.60
2022-08-12T03:12:36.853Z,3.00
2022-08-12T03:15:22.151Z,2.60
2022-08-12T03:18:26.993Z,3.07
2022-08-12T03:20:42.524Z,2.60
2022-08-12T03:23:28.688Z,3.13
2022-08-12T03:26:01.504Z,2.67
2022-08-12T03:28:48.383Z,2.97
2022-08-12T03:31:18.477Z,3.10
2022-08-12T03:34:02.003Z,3.10
2022-08-12T03:36:31.865Z,2.83
2022-08-12T03:42:12.470Z,2.70
2022-08-12T03:45:00.733Z,3.10
2022-08-12T03:47:52.172Z,2.93
2022-08-12T03:50:38.539Z,3.07
2022-08-12T03:53:26.546Z,3.23
2022-08-12T03:56:11.935Z,2.97
2022-08-12T03:58:58.994Z,3.07
2022-08-12T04:01:28.268Z,3.10
2022-08-12T04:03:56.025Z,3.10
2022-08-12T04:06:35.851Z,2.77
2022-08-12T04:09:14.846Z,2.80
2022-08-12T04:12:03.213Z,3.03
2022-08-12T04:14:33.274Z,2.90
2022-08-12T04:17:01.492Z,2.57
2022-08-12T04:19:29.720Z,2.87
2022-08-12T04:22:02.194Z,2.90
2022-08-12T04:24:31.438Z,3.07
2022-08-12T04:26:59.101Z,3.30
2022-08-12T04:30:21.030Z,2.80
2022-08-12T04:32:16.565Z,2.87
2022-08-12T04:34:44.724Z,2.57
2022-08-12T04:37:13.416Z,3.13
2022-08-12T04:39:42.331Z,3.10
2022-08-12T04:42:09.857Z,3.87
2022-08-12T04:44:37.358Z,2.87
2022-08-12T04:47:05.222Z,3.70
2022-08-12T04:49:35.757Z,2.80
2022-08-12T04:52:04.242Z,3.27
2022-08-12T04:54:34.112Z,3.17
2022-08-12T04:57:03.756Z,3.77
2022-08-12T04:59:47.908Z,3.90
2022-08-12T05:02:20.853Z,3.43
2022-08-12T05:04:52.644Z,3.53
2022-08-12T05:07:20.668Z,3.50
2022-08-12T05:10:00.463Z,3.80
2022-08-12T05:12:36.356Z,3.97
2022-08-12T05:15:19.067Z,3.93
2022-08-12T05:17:52.872Z,4.20
2022-08-12T05:20:22.564Z,4.33
2022-08-12T05:22:57.014Z,3.90
2022-08-12T05:25:25.211Z,3.60
2022-08-12T05:27:55.369Z,4.27
2022-08-12T05:30:26.434Z,4.30
2022-08-12T05:32:55.505Z,4.20
2022-08-12T05:35:25.092Z,4.20
2022-08-12T05:38:13.547Z,4.30
2022-08-12T05:40:41.785Z,4.70
2022-08-12T05:43:09.529Z,4.77
2022-08-12T05:45:41.564Z,4.33
2022-08-12T05:48:11.963Z,4.00
2022-08-12T05:50:41.347Z,4.60
2022-08-12T05:53:09.099Z,4.93
2022-08-12T05:55:37.278Z,4.53
2022-08-12T05:58:05.965Z,4.13
2022-08-12T06:00:33.755Z,4.40
2022-08-12T06:03:01.843Z,4.93
2022-08-12T06:05:30.140Z,4.60
2022-08-12T06:08:02.858Z,4.33
2022-08-12T06:10:32.790Z,4.57
2022-08-12T06:13:02.165Z,4.10
2022-08-12T06:15:30.631Z,4.50
2022-08-12T06:18:05.342Z,4.23
2022-08-12T06:20:41.709Z,4.07
2022-08-12T06:23:11.798Z,4.90
2022-08-12T06:25:39.841Z,4.70
2022-08-12T06:28:15.502Z,4.60
2022-08-12T06:30:43.125Z,5.60
2022-08-12T06:33:21.518Z,4.60
2022-08-12T06:35:51.808Z,4.03
2022-08-12T06:38:22.464Z,4.33
2022-08-12T06:41:11.886Z,4.40
2022-08-12T06:44:04.440Z,4.80
2022-08-12T06:46:36.691Z,4.57
2022-08-12T06:49:04.274Z,4.70
2022-08-12T06:51:32.828Z,4.30
2022-08-12T06:54:02.757Z,5.03
2022-08-12T06:57:01.760Z,5.30
2022-08-12T06:59:21.073Z,4.80
2022-08-12T07:01:49.809Z,4.87
2022-08-12T07:07:08.854Z,4.60
2022-08-12T07:10:04.859Z,4.13
2022-08-12T07:12:28.095Z,4.77
2022-08-12T07:14:57.430Z,5.23
2022-08-12T07:17:25.139Z,5.50
2022-08-12T07:19:53.710Z,4.87
2022-08-12T07:22:23.211Z,4.03
2022-08-12T07:25:12.346Z,3.90
2022-08-12T07:27:42.528Z,4.23
2022-08-12T07:30:11.381Z,5.03
2022-08-12T07:32:39.178Z,4.37
2022-08-12T07:35:07.621Z,4.40
2022-08-12T07:37:41.494Z,4.07
2022-08-12T07:40:12.099Z,4.17
2022-08-12T07:42:40.972Z,4.53
2022-08-12T07:45:09.566Z,3.83
2022-08-12T07:47:37.844Z,4.97
2022-08-12T07:50:09.104Z,4.47
2022-08-12T07:52:38.143Z,4.07
2022-08-12T07:55:06.924Z,4.17
2022-08-12T07:57:36.551Z,4.10
2022-08-12T08:00:06.396Z,4.40
2022-08-12T08:02:37.101Z,4.90
2022-08-12T08:05:06.203Z,4.67
2022-08-12T08:07:33.968Z,4.80
2022-08-12T08:10:06.696Z,4.43
2022-08-12T08:12:51.828Z,4.23
2022-08-12T08:15:33.731Z,3.77
2022-08-12T08:18:11.165Z,4.30
2022-08-12T08:20:42.156Z,4.27
2022-08-12T08:23:12.253Z,3.40
2022-08-12T08:25:41.290Z,3.87
2022-08-12T08:28:10.793Z,3.90
2022-08-12T08:30:42.441Z,3.47
2022-08-12T08:33:24.669Z,3.57
2022-08-12T08:36:00.102Z,3.30
2022-08-12T08:38:33.352Z,4.40
2022-08-12T08:42:14.681Z,2.80
2022-08-12T08:44:10.535Z,3.07
2022-08-12T08:46:39.481Z,3.63
2022-08-12T08:49:07.596Z,3.53
2022-08-12T08:51:35.287Z,3.10
2022-08-12T08:54:03.083Z,3.53
2022-08-12T08:56:30.722Z,3.00
2022-08-12T08:58:58.567Z,4.40
2022-08-12T09:01:26.814Z,2.97
2022-08-12T09:05:08.301Z,3.13
2022-08-12T09:06:58.411Z,2.97
2022-08-12T09:09:34.074Z,2.20
2022-08-12T09:12:44.054Z,2.73
2022-08-12T09:15:21.635Z,2.47
2022-08-12T09:17:54.367Z,2.13
2022-08-12T09:26:04.370Z,2.87
2022-08-12T09:28:33.315Z,3.67
2022-08-12T09:31:00.866Z,2.90
2022-08-12T09:34:26.031Z,3.40
2022-08-12T09:36:31.459Z,2.33
2022-08-12T09:40:05.338Z,3.03
2022-08-12T09:42:38.835Z,3.40
2022-08-12T09:45:24.486Z,2.90
2022-08-12T09:48:20.471Z,2.60
2022-08-12T09:50:51.719Z,2.33
2022-08-12T09:53:35.965Z,2.27
2022-08-12T09:57:00.422Z,2.20
2022-08-12T09:58:59.963Z,2.13
2022-08-12T10:01:35.338Z,2.50
2022-08-12T10:04:19.541Z,2.50
2022-08-12T10:06:54.221Z,2.40
2022-08-12T10:09:28.537Z,2.03
2022-08-12T10:12:31.594Z,2.70
2022-08-12T10:15:01.293Z,2.23
2022-08-12T10:17:28.889Z,2.33
2022-08-12T10:19:59.687Z,2.47
2022-08-12T10:22:40.177Z,2.70
2022-08-12T10:26:35.442Z,2.53
2022-08-12T10:28:35.052Z,2.87
2022-08-12T10:31:05.175Z,2.53
2022-08-12T10:33:33.448Z,2.00
2022-08-12T10:36:02.290Z,2.70
2022-08-12T10:38:37.406Z,2.17
2022-08-12T10:41:57.472Z,2.67
2022-08-12T10:44:17.569Z,2.33
2022-08-12T10:46:45.926Z,2.57
2022-08-12T10:50:03.187Z,2.30
2022-08-12T10:52:33.269Z,2.20
2022-08-12T10:54:55.831Z,2.17
2022-08-12T10:58:27.688Z,2.13
2022-08-12T11:00:31.388Z,2.67
2022-08-12T11:04:31.296Z,3.10
2022-08-12T11:07:05.822Z,2.70
2022-08-12T11:08:42.302Z,2.50
2022-08-12T11:12:07.452Z,2.23
2022-08-12T11:14:06.760Z,2.40
2022-08-12T11:17:34.675Z,2.00
2022-08-12T11:19:45.251Z,2.47
2022-08-12T11:22:13.915Z,2.70
2022-08-12T11:24:42.134Z,2.00
2022-08-12T11:27:19.228Z,3.07
2022-08-12T11:30:06.156Z,2.60
2022-08-12T11:32:39.017Z,2.20
2022-08-12T11:35:08.063Z,2.37
2022-08-12T11:37:58.016Z,2.20
2022-08-12T11:40:25.689Z,2.60
2022-08-12T11:43:01.852Z,2.20
2022-08-12T11:45:47.221Z,2.40
2022-08-12T11:48:15.613Z,1.90
2022-08-12T11:50:44.295Z,2.40
2022-08-12T11:53:57.811Z,1.90
2022-08-12T11:56:00.108Z,2.73
2022-08-12T11:59:02.907Z,2.30
2022-08-12T12:02:02.281Z,2.10
2022-08-12T12:04:06.035Z,2.40
2022-08-12T12:06:38.097Z,2.67
2022-08-12T12:09:05.655Z,2.60
2022-08-12T12:11:48.617Z,2.20
2022-08-12T12:14:17.734Z,2.37
2022-08-12T12:16:49.939Z,2.43
2022-08-12T12:19:19.111Z,2.57
2022-08-12T12:21:49.333Z,2.07
2022-08-12T12:24:21.141Z,2.10
2022-08-12T12:26:59.612Z,2.00
2022-08-12T12:30:19.725Z,2.27
2022-08-12T12:32:18.410Z,2.30
2022-08-12T12:35:14.474Z,2.80
2022-08-12T12:38:04.058Z,1.90
2022-08-12T12:40:22.221Z,2.10
2022-08-12T12:43:00.513Z,1.97
2022-08-12T12:45:33.532Z,2.50
2022-08-12T12:48:04.204Z,2.30
2022-08-12T12:50:35.347Z,2.20
2022-08-12T12:54:06.056Z,2.17
2022-08-12T12:55:59.995Z,2.23
2022-08-12T12:58:27.537Z,2.60
2022-08-12T13:00:59.945Z,2.20
2022-08-12T13:03:48.855Z,2.40
2022-08-12T13:06:19.027Z,2.20
2022-08-12T13:08:48.776Z,2.40
2022-08-12T13:11:16.271Z,2.63
2022-08-12T13:14:07.968Z,2.20
2022-08-12T13:16:31.238Z,2.17
2022-08-12T13:19:00.115Z,2.10
2022-08-12T13:21:33.473Z,2.10
2022-08-12T13:24:10.485Z,2.20
2022-08-12T13:26:40.042Z,2.10
2022-08-12T13:29:11.301Z,2.60
2022-08-12T13:31:46.169Z,1.90
2022-08-12T13:34:34.708Z,3.40
2022-08-12T13:37:09.229Z,2.13
2022-08-12T13:39:37.658Z,2.03
2022-08-12T13:42:13.808Z,2.10
2022-08-12T13:44:42.993Z,2.63
2022-08-12T13:47:18.462Z,2.00
2022-08-12T13:49:54.452Z,1.93
2022-08-12T13:52:23.738Z,2.27
2022-08-12T13:54:56.200Z,2.00
2022-08-12T13:57:25.503Z,2.33
2022-08-12T13:59:55.206Z,2.30
2022-08-12T14:02:23.526Z,2.17
2022-08-12T14:04:56.701Z,2.23
2022-08-12T14:07:26.150Z,2.20
2022-08-12T14:10:12.481Z,2.60
2022-08-12T14:12:54.220Z,2.63
2022-08-12T14:15:36.970Z,2.23
2022-08-12T14:18:13.255Z,2.40
2022-08-12T14:20:47.604Z,1.50
2022-08-12T14:24:01.079Z,1.90
2022-08-12T14:26:25.038Z,2.20
2022-08-12T14:28:57.711Z,2.27
2022-08-12T14:31:31.859Z,2.60
2022-08-12T14:34:00.203Z,2.13
2022-08-12T14:36:34.340Z,2.10
2022-08-12T14:39:04.674Z,1.90
2022-08-12T14:41:37.275Z,1.90
2022-08-12T14:44:57.746Z,2.03
2022-08-12T14:47:07.674Z,2.20
2022-08-12T14:50:37.503Z,2.60
2022-08-12T14:52:55.916Z,2.43
2022-08-12T14:58:02.994Z,2.07
2022-08-12T15:00:52.268Z,2.00
2022-08-12T15:03:23.141Z,2.50
2022-08-12T15:06:03.463Z,1.97
2022-08-12T15:08:38.924Z,2.13
2022-08-12T15:11:12.680Z,2.20
2022-08-12T15:13:45.665Z,4.20
2022-08-12T15:16:18.939Z,2.40
2022-08-12T15:18:54.958Z,1.97
2022-08-12T15:21:25.098Z,1.90
2022-08-12T15:23:55.661Z,1.97
2022-08-12T15:26:30.845Z,2.00
2022-08-12T15:29:02.492Z,2.27
2022-08-12T15:32:01.815Z,1.80
2022-08-12T15:34:21.605Z,1.73
2022-08-12T15:36:54.636Z,1.83
2022-08-12T15:39:25.283Z,2.10
2022-08-12T15:41:55.736Z,1.70
2022-08-12T15:44:42.034Z,2.23
2022-08-12T15:47:10.596Z,2.10
2022-08-12T15:49:55.118Z,1.80
2022-08-12T15:52:28.622Z,2.40
2022-08-12T15:55:05.022Z,2.03
2022-08-12T15:57:34.379Z,1.87
2022-08-12T16:00:07.418Z,2.20
2022-08-12T16:02:47.318Z,2.03
2022-08-12T16:06:11.526Z,1.50
2022-08-12T16:08:13.261Z,2.87
2022-08-12T16:10:46.486Z,2.00
2022-08-12T16:13:32.291Z,2.40
2022-08-12T16:16:03.822Z,2.00
2022-08-12T16:18:33.376Z,1.97
2022-08-12T16:21:01.572Z,2.37
2022-08-12T16:23:51.477Z,1.90
2022-08-12T16:26:27.534Z,1.77
2022-08-12T16:29:15.648Z,1.77
2022-08-12T16:31:44.198Z,1.60
2022-08-12T16:34:39.927Z,2.27
2022-08-12T16:37:07.365Z,1.80
2022-08-12T16:40:00.958Z,1.80
2022-08-12T16:42:28.433Z,1.50
2022-08-12T16:44:59.432Z,1.40
2022-08-12T16:47:28.717Z,1.67
2022-08-12T16:50:16.460Z,1.60
2022-08-12T16:52:48.265Z,1.50
2022-08-12T16:55:17.083Z,1.60
2022-08-12T16:57:54.595Z,1.70
2022-08-12T17:00:24.906Z,1.50
2022-08-12T17:02:58.501Z,3.23
2022-08-12T17:05:30.955Z,2.07
2022-08-12T17:08:00.161Z,1.77
2022-08-12T17:10:36.236Z,1.70
2022-08-12T17:13:10.130Z,1.50
2022-08-12T17:15:56.711Z,1.70
2022-08-12T17:18:42.318Z,1.30
2022-08-12T17:21:17.393Z,1.50
2022-08-12T17:23:54.021Z,1.73
2022-08-12T17:26:22.565Z,2.10
2022-08-12T17:28:57.801Z,1.57
2022-08-12T17:31:59.776Z,1.57
2022-08-12T17:34:33.915Z,1.70
2022-08-12T17:37:05.072Z,1.50
2022-08-12T17:40:13.528Z,1.40
2022-08-12T17:42:34.340Z,1.70
2022-08-12T17:45:17.192Z,1.47
2022-08-12T17:48:01.113Z,1.40
2022-08-12T17:50:36.351Z,1.50
2022-08-12T17:53:05.602Z,1.53
2022-08-12T17:55:44.393Z,1.30
2022-08-12T17:58:21.558Z,1.37
2022-08-12T18:00:52.017Z,1.43
2022-08-12T18:04:05.586Z,1.33
2022-08-12T18:06:14.703Z,1.93
2022-08-12T18:08:54.253Z,2.10
2022-08-12T18:12:05.886Z,2.37
2022-08-12T18:14:30.392Z,1.60
2022-08-12T18:17:01.707Z,1.77
2022-08-12T18:20:05.201Z,2.03
2022-08-12T18:22:30.972Z,1.87
2022-08-12T18:25:03.911Z,1.67
2022-08-12T18:27:46.872Z,2.13
2022-08-12T18:30:20.931Z,3.03
2022-08-12T18:33:03.838Z,2.50
2022-08-12T18:35:46.549Z,2.87
2022-08-12T18:38:22.182Z,2.20
2022-08-12T18:41:09.987Z,1.73
2022-08-12T18:43:58.389Z,3.17
2022-08-12T18:46:32.119Z,3.30
2022-08-12T18:49:17.140Z,2.10
2022-08-12T18:51:55.133Z,2.23
2022-08-12T18:54:26.179Z,2.90
2022-08-12T18:56:56.127Z,3.60
2022-08-12T19:00:00.153Z,3.57
2022-08-12T19:02:21.554Z,3.67
2022-08-12T19:05:19.297Z,3.67
2022-08-12T19:08:00.111Z,3.50
2022-08-12T19:10:30.493Z,4.17
2022-08-12T19:13:23.017Z,3.30
2022-08-12T19:15:54.283Z,2.87
2022-08-12T19:18:45.458Z,3.60
2022-08-12T19:21:30.526Z,3.37
2022-08-12T19:24:17.311Z,2.90
2022-08-12T19:26:49.327Z,2.90
2022-08-12T19:29:25.917Z,2.20
2022-08-12T19:31:59.295Z,2.53
2022-08-12T19:37:27.031Z,2.00
2022-08-12T19:40:09.128Z,1.90
2022-08-12T19:42:53.360Z,1.77
2022-08-12T19:45:22.264Z,2.13
2022-08-12T19:48:16.735Z,2.00
2022-08-12T19:50:50.647Z,7.50
2022-08-12T19:53:23.384Z,3.27
2022-08-12T19:55:53.465Z,2.47
2022-08-12T19:58:26.881Z,2.80
2022-08-12T20:01:00.601Z,3.27
2022-08-12T20:03:39.218Z,4.13
2022-08-12T20:06:15.764Z,2.90
2022-08-12T20:08:55.551Z,3.10
2022-08-12T20:12:12.352Z,3.07
2022-08-12T20:14:22.587Z,3.00
2022-08-12T20:17:01.885Z,3.40
2022-08-12T20:20:16.719Z,3.20
2022-08-12T20:22:29.947Z,2.27
2022-08-12T20:25:11.964Z,2.83
2022-08-12T20:28:04.962Z,2.40
2022-08-12T20:30:37.249Z,2.83
2022-08-12T20:33:23.028Z,2.67
2022-08-12T20:36:13.031Z,2.80
2022-08-12T20:38:45.877Z,2.50
2022-08-12T20:41:16.466Z,3.03
2022-08-12T20:43:49.365Z,3.60
2022-08-12T20:46:17.457Z,3.77
2022-08-12T20:48:46.962Z,3.27
2022-08-12T20:51:23.107Z,3.20
2022-08-12T20:53:54.480Z,3.90
2022-08-12T20:56:33.021Z,3.00
2022-08-12T20:59:05.793Z,3.90
2022-08-12T21:01:46.140Z,3.07
2022-08-12T21:04:34.933Z,3.33
2022-08-12T21:07:08.342Z,3.17
2022-08-12T21:09:41.922Z,3.03
2022-08-12T21:12:28.193Z,3.50
2022-08-12T21:15:18.078Z,2.80
2022-08-12T21:18:11.199Z,4.10
2022-08-12T21:20:52.550Z,3.10
2022-08-12T21:23:22.596Z,2.70
2022-08-12T21:25:52.371Z,2.33
2022-08-12T21:28:31.158Z,2.60
2022-08-12T21:32:35.031Z,2.80
2022-08-12T21:34:06.591Z,2.90
2022-08-12T21:36:39.824Z,2.77
2022-08-12T21:39:19.322Z,2.60
2022-08-12T21:41:52.053Z,2.77
2022-08-12T21:44:24.063Z,2.70
2022-08-12T21:47:20.826Z,2.90
2022-08-12T21:50:02.226Z,3.00
2022-08-12T21:52:34.592Z,2.77
2022-08-12T21:55:04.187Z,2.83
2022-08-12T21:57:51.249Z,3.00
2022-08-12T22:00:33.063Z,2.50
2022-08-12T22:04:04.326Z,2.73
2022-08-12T22:06:20.279Z,3.30
2022-08-12T22:09:02.381Z,3.50
2022-08-12T22:11:41.578Z,3.50
2022-08-12T22:14:21.337Z,3.63
2022-08-12T22:16:54.543Z,2.47
2022-08-12T22:19:22.917Z,3.20
2022-08-12T22:21:53.818Z,2.90
2022-08-12T22:24:27.167Z,2.70
2022-08-12T22:26:59.126Z,3.30
2022-08-12T22:29:44.538Z,2.93
2022-08-12T22:32:13.998Z,2.77
2022-08-12T22:34:44.457Z,2.57
2022-08-12T22:37:19.826Z,3.00
2022-08-12T22:39:49.018Z,2.73
2022-08-12T22:42:34.710Z,2.80
2022-08-12T22:45:23.412Z,2.67
2022-08-12T22:47:56.146Z,2.50
2022-08-12T22:50:27.115Z,2.90
2022-08-12T22:53:14.096Z,2.87
2022-08-12T22:56:00.100Z,2.90
2022-08-12T22:58:32.097Z,2.40
2022-08-12T23:01:02.379Z,2.63
2022-08-12T23:03:49.006Z,3.03
2022-08-12T23:06:20.053Z,2.30
2022-08-12T23:08:48.276Z,3.10
2022-08-12T23:11:17.808Z,2.90
2022-08-12T23:13:54.911Z,2.50
2022-08-12T23:16:29.252Z,2.37
2022-08-12T23:19:09.629Z,2.20
2022-08-12T23:22:06.482Z,2.90
2022-08-12T23:24:39.084Z,2.70
2022-08-12T23:27:50.145Z,2.60
2022-08-12T23:30:18.979Z,2.47
2022-08-12T23:32:54.507Z,2.80
2022-08-12T23:35:53.587Z,2.53
2022-08-12T23:38:30.144Z,2.60
2022-08-12T23:40:59.595Z,3.00
2022-08-12T23:43:39.974Z,3.40
2022-08-12T23:46:09.819Z,2.50
2022-08-12T23:48:38.092Z,2.87
2022-08-12T23:51:22.450Z,2.60
2022-08-12T23:53:53.474Z,2.77
2022-08-12T23:56:23.561Z,1.93
2022-08-12T23:58:52.581Z,2.90
